createdAt,value
2023-04-20T00:01:48.222Z,55.03
2023-04-20T00:04:16.508Z,55.03
2023-04-20T00:06:45.641Z,55.05
2023-04-20T00:09:15.478Z,55.03
2023-04-20T00:11:43.534Z,55.10
2023-04-20T00:14:11.750Z,55.11
2023-04-20T00:16:39.802Z,55.19
2023-04-20T00:19:08.293Z,55.26
2023-04-20T00:21:36.797Z,55.29
2023-04-20T00:24:05.148Z,55.36
2023-04-20T00:26:34.068Z,55.43
2023-04-20T00:29:02.266Z,55.54
2023-04-20T00:31:32.051Z,55.60
2023-04-20T00:34:00.252Z,55.80
2023-04-20T00:36:28.687Z,56.21
2023-04-20T00:38:56.867Z,56.45
2023-04-20T00:41:24.823Z,56.63
2023-04-20T00:43:54.391Z,57.22
2023-04-20T00:46:22.757Z,57.54
2023-04-20T00:48:54.342Z,57.66
2023-04-20T00:51:22.815Z,57.90
2023-04-20T00:53:50.935Z,57.93
2023-04-20T00:56:19.655Z,58.16
2023-04-20T00:58:47.882Z,58.32
2023-04-20T01:01:17.752Z,58.54
2023-04-20T01:03:47.664Z,58.69
2023-04-20T01:06:16.468Z,59.09
2023-04-20T01:08:52.134Z,59.25
2023-04-20T01:11:20.333Z,59.41
2023-04-20T01:13:49.200Z,59.65
2023-04-20T01:16:17.700Z,59.86
2023-04-20T01:18:48.622Z,59.91
2023-04-20T01:21:18.918Z,59.56
2023-04-20T01:23:47.110Z,59.47
2023-04-20T01:26:17.732Z,59.55
2023-04-20T01:28:46.148Z,59.47
2023-04-20T01:31:16.942Z,59.57
2023-04-20T01:33:45.342Z,59.46
2023-04-20T01:36:14.093Z,59.44
2023-04-20T01:38:42.129Z,59.40
2023-04-20T01:41:10.929Z,59.39
2023-04-20T01:43:39.474Z,59.73
2023-04-20T01:46:07.777Z,59.96
2023-04-20T01:48:36.163Z,60.01
2023-04-20T01:51:04.781Z,59.99
2023-04-20T01:53:34.201Z,60.04
2023-04-20T01:56:02.285Z,59.88
2023-04-20T01:58:30.380Z,60.00
2023-04-20T02:00:58.471Z,59.81
2023-04-20T02:03:28.395Z,59.90
2023-04-20T02:05:56.546Z,60.11
2023-04-20T02:08:28.651Z,60.47
2023-04-20T02:10:56.720Z,60.64
2023-04-20T02:13:24.653Z,60.75
2023-04-20T02:15:52.850Z,60.84
2023-04-20T02:18:21.433Z,60.79
2023-04-20T02:20:49.568Z,60.76
2023-04-20T02:23:17.834Z,60.68
2023-04-20T02:25:45.869Z,60.97
2023-04-20T02:28:13.843Z,61.01
2023-04-20T02:30:41.728Z,61.10
2023-04-20T02:33:13.028Z,61.14
2023-04-20T02:35:41.390Z,61.25
2023-04-20T02:38:12.001Z,61.42
2023-04-20T02:40:40.416Z,61.54
2023-04-20T02:43:10.001Z,61.51
2023-04-20T02:45:38.852Z,61.68
2023-04-20T02:48:07.306Z,61.78
2023-04-20T02:50:38.391Z,61.65
2023-04-20T02:53:27.011Z,61.49
2023-04-20T02:56:21.787Z,61.52
2023-04-20T02:58:54.443Z,61.71
2023-04-20T03:01:26.684Z,61.76
2023-04-20T03:04:01.982Z,61.72
2023-04-20T03:06:32.582Z,61.88
2023-04-20T03:09:01.476Z,61.88
2023-04-20T03:11:51.104Z,62.17
2023-04-20T03:14:31.075Z,62.06
2023-04-20T03:16:59.087Z,62.02
2023-04-20T03:19:26.960Z,62.20
2023-04-20T03:21:55.034Z,62.20
2023-04-20T03:24:24.146Z,62.34
2023-04-20T03:26:53.612Z,62.47
2023-04-20T03:29:31.762Z,62.49
2023-04-20T03:32:00.887Z,62.56
2023-04-20T03:34:29.167Z,63.00
2023-04-20T03:36:57.281Z,62.92
2023-04-20T03:39:25.258Z,62.60
2023-04-20T03:41:53.273Z,62.62
2023-04-20T03:44:21.225Z,62.58
2023-04-20T03:46:49.151Z,62.80
2023-04-20T03:49:17.799Z,62.72
2023-04-20T03:51:46.332Z,62.88
2023-04-20T03:54:14.226Z,62.70
2023-04-20T03:56:44.625Z,62.72
2023-04-20T03:59:14.369Z,62.63
2023-04-20T04:01:44.164Z,62.69
2023-04-20T04:04:12.738Z,62.53
2023-04-20T04:06:40.781Z,62.57
2023-04-20T04:09:09.649Z,62.80
2023-04-20T04:11:37.717Z,62.98
2023-04-20T04:14:06.344Z,63.27
2023-04-20T04:16:36.392Z,63.64
2023-04-20T04:19:04.486Z,63.74
2023-04-20T04:21:32.596Z,64.11
2023-04-20T04:24:04.813Z,64.18
2023-04-20T04:26:40.305Z,64.18
2023-04-20T04:29:09.129Z,64.20
2023-04-20T04:31:37.749Z,64.30
2023-04-20T04:34:12.726Z,64.37
2023-04-20T04:36:46.407Z,64.50
2023-04-20T04:39:16.701Z,64.47
2023-04-20T04:41:51.627Z,65.30
2023-04-20T04:44:28.779Z,64.11
2023-04-20T04:46:57.602Z,63.47
2023-04-20T04:49:26.858Z,63.17
2023-04-20T04:51:54.942Z,62.78
2023-04-20T04:54:23.165Z,62.31
2023-04-20T04:56:51.701Z,61.86
2023-04-20T04:59:19.739Z,61.64
2023-04-20T05:01:48.303Z,61.38
2023-04-20T05:04:16.485Z,61.01
2023-04-20T05:06:44.434Z,60.69
2023-04-20T05:09:12.468Z,60.41
2023-04-20T05:11:40.502Z,60.12
2023-04-20T05:14:08.374Z,59.55
2023-04-20T05:16:36.270Z,59.38
2023-04-20T05:19:04.342Z,58.59
2023-04-20T05:21:32.922Z,58.44
2023-04-20T05:24:01.411Z,58.18
2023-04-20T05:26:29.526Z,57.50
2023-04-20T05:28:57.380Z,56.92
2023-04-20T05:31:26.444Z,56.37
2023-04-20T05:33:54.444Z,56.09
2023-04-20T05:36:22.452Z,55.02
2023-04-20T05:38:50.415Z,54.53
2023-04-20T05:41:18.272Z,53.80
2023-04-20T05:43:46.199Z,53.29
2023-04-20T05:46:14.238Z,53.04
2023-04-20T05:48:42.222Z,53.24
2023-04-20T05:51:10.051Z,53.41
2023-04-20T05:53:38.206Z,52.53
2023-04-20T05:56:07.395Z,52.23
2023-04-20T05:58:37.564Z,52.40
2023-04-20T06:01:06.056Z,52.26
2023-04-20T06:03:34.695Z,51.64
2023-04-20T06:06:02.791Z,51.74
2023-04-20T06:08:30.763Z,52.00
2023-04-20T06:10:59.444Z,52.07
2023-04-20T06:13:27.374Z,54.44
2023-04-20T06:15:55.345Z,53.55
2023-04-20T06:18:23.644Z,52.45
2023-04-20T06:20:51.603Z,52.60
2023-04-20T06:23:19.598Z,52.50
2023-04-20T06:25:48.117Z,52.46
2023-04-20T06:28:16.156Z,52.82
2023-04-20T06:30:44.182Z,52.60
2023-04-20T06:33:17.167Z,52.17
2023-04-20T06:35:45.193Z,52.22
2023-04-20T06:38:13.074Z,51.97
2023-04-20T06:40:41.261Z,51.79
2023-04-20T06:43:09.661Z,51.32
2023-04-20T06:45:37.802Z,51.26
2023-04-20T06:48:14.119Z,51.45
2023-04-20T06:50:51.822Z,51.17
2023-04-20T06:53:19.805Z,50.98
2023-04-20T06:55:47.748Z,51.12
2023-04-20T06:58:15.618Z,51.33
2023-04-20T07:00:44.506Z,51.09
2023-04-20T07:03:12.686Z,51.22
2023-04-20T07:05:41.091Z,51.20
2023-04-20T07:08:09.609Z,51.38
2023-04-20T07:10:37.630Z,52.29
2023-04-20T07:13:06.255Z,51.43
2023-04-20T07:15:34.296Z,50.82
2023-04-20T07:18:02.851Z,51.09
2023-04-20T07:20:31.512Z,51.34
2023-04-20T07:22:59.599Z,50.89
2023-04-20T07:25:28.136Z,50.87
2023-04-20T07:27:56.239Z,50.73
2023-04-20T07:30:24.651Z,50.22
2023-04-20T07:32:52.853Z,50.30
2023-04-20T07:35:21.230Z,50.80
2023-04-20T07:37:49.035Z,50.76
2023-04-20T07:40:17.151Z,50.57
2023-04-20T07:42:46.238Z,50.80
2023-04-20T07:45:14.429Z,50.78
2023-04-20T07:47:47.345Z,50.40
2023-04-20T07:50:15.882Z,50.11
2023-04-20T07:52:46.759Z,49.40
2023-04-20T07:55:15.946Z,49.37
2023-04-20T07:57:44.016Z,48.93
2023-04-20T08:00:13.453Z,48.77
2023-04-20T08:02:42.521Z,48.36
2023-04-20T08:05:12.494Z,47.84
2023-04-20T08:07:40.982Z,46.58
2023-04-20T08:10:10.589Z,46.24
2023-04-20T08:12:39.989Z,45.80
2023-04-20T08:15:08.878Z,45.77
2023-04-20T08:17:37.002Z,45.15
2023-04-20T08:20:06.466Z,45.45
2023-04-20T08:22:34.473Z,44.95
2023-04-20T08:25:02.773Z,44.37
2023-04-20T08:27:31.460Z,44.10
2023-04-20T08:29:59.673Z,44.23
2023-04-20T08:32:27.893Z,44.22
2023-04-20T08:34:56.160Z,44.17
2023-04-20T08:37:25.221Z,43.58
2023-04-20T08:39:53.185Z,43.37
2023-04-20T08:42:21.144Z,42.99
2023-04-20T08:44:49.729Z,42.61
2023-04-20T08:47:17.852Z,42.41
2023-04-20T08:49:48.873Z,42.45
2023-04-20T08:52:17.249Z,42.35
2023-04-20T08:54:55.904Z,42.40
2023-04-20T08:57:26.130Z,42.61
2023-04-20T08:59:54.543Z,42.81
2023-04-20T09:02:22.887Z,42.79
2023-04-20T09:05:05.478Z,42.07
2023-04-20T09:07:33.979Z,41.79
2023-04-20T09:10:02.117Z,42.31
2023-04-20T09:12:41.950Z,42.53
2023-04-20T09:15:10.955Z,42.51
2023-04-20T09:17:41.259Z,41.84
2023-04-20T09:20:11.813Z,42.08
2023-04-20T09:22:41.092Z,42.08
2023-04-20T09:25:16.851Z,41.33
2023-04-20T09:27:56.324Z,41.12
2023-04-20T09:30:25.184Z,40.81
2023-04-20T09:33:03.657Z,40.57
2023-04-20T09:35:31.749Z,39.88
2023-04-20T09:37:59.945Z,39.95
2023-04-20T09:40:28.727Z,39.37
2023-04-20T09:43:03.355Z,39.14
2023-04-20T09:45:31.772Z,39.75
2023-04-20T09:48:00.059Z,39.84
2023-04-20T09:50:38.310Z,39.25
2023-04-20T09:53:11.174Z,39.16
2023-04-20T09:55:39.466Z,39.33
2023-04-20T09:58:07.489Z,39.79
2023-04-20T10:00:35.565Z,39.73
2023-04-20T10:03:04.292Z,38.63
2023-04-20T10:05:36.783Z,38.62
2023-04-20T10:08:05.112Z,38.52
2023-04-20T10:10:47.277Z,39.12
2023-04-20T10:13:16.593Z,39.31
2023-04-20T10:15:45.127Z,38.05
2023-04-20T10:18:23.831Z,36.72
2023-04-20T10:21:04.094Z,36.26
2023-04-20T10:23:32.270Z,36.18
2023-04-20T10:26:01.924Z,37.19
2023-04-20T10:28:41.790Z,37.55
2023-04-20T10:31:13.730Z,36.56
2023-04-20T10:33:56.222Z,36.84
2023-04-20T10:36:27.905Z,36.69
2023-04-20T10:38:56.358Z,36.24
2023-04-20T10:41:25.282Z,36.44
2023-04-20T10:43:53.420Z,36.71
2023-04-20T10:46:23.427Z,36.65
2023-04-20T10:48:54.610Z,37.14
2023-04-20T10:51:23.417Z,37.15
2023-04-20T10:54:08.578Z,37.14
2023-04-20T10:56:48.593Z,37.02
2023-04-20T10:59:18.947Z,36.53
2023-04-20T11:01:47.845Z,35.85
2023-04-20T11:04:18.624Z,35.80
2023-04-20T11:06:48.635Z,35.74
2023-04-20T11:09:22.727Z,35.37
2023-04-20T11:12:01.149Z,35.34
2023-04-20T11:14:29.719Z,35.44
2023-04-20T11:16:58.094Z,35.43
2023-04-20T11:19:30.524Z,35.13
2023-04-20T11:21:58.906Z,35.11
2023-04-20T11:24:34.522Z,34.73
2023-04-20T11:27:04.633Z,34.51
2023-04-20T11:29:38.802Z,34.62
2023-04-20T11:32:10.458Z,33.97
2023-04-20T11:34:40.103Z,33.63
2023-04-20T11:37:14.099Z,33.41
2023-04-20T11:39:42.316Z,32.94
2023-04-20T11:42:11.030Z,33.06
2023-04-20T11:44:41.403Z,33.13
2023-04-20T11:47:11.668Z,33.26
2023-04-20T11:49:40.316Z,33.13
2023-04-20T11:52:08.446Z,33.07
2023-04-20T11:54:36.912Z,32.78
2023-04-20T11:57:04.850Z,32.60
2023-04-20T11:59:33.449Z,32.38
2023-04-20T12:02:04.494Z,32.17
2023-04-20T12:04:34.456Z,32.03
2023-04-20T12:07:03.180Z,32.65
2023-04-20T12:09:36.381Z,32.46
2023-04-20T12:12:07.106Z,32.17
2023-04-20T12:14:36.926Z,32.26
2023-04-20T12:17:05.164Z,32.29
2023-04-20T12:19:33.475Z,32.52
2023-04-20T12:22:01.455Z,32.26
2023-04-20T12:24:29.675Z,32.39
2023-04-20T12:26:58.101Z,32.16
2023-04-20T12:29:26.488Z,32.25
2023-04-20T12:31:54.595Z,32.18
2023-04-20T12:34:22.781Z,32.08
2023-04-20T12:36:50.884Z,31.83
2023-04-20T12:39:18.894Z,30.79
2023-04-20T12:41:47.317Z,31.12
2023-04-20T12:44:15.842Z,31.79
2023-04-20T12:46:44.480Z,32.05
2023-04-20T12:49:12.481Z,32.02
2023-04-20T12:51:41.148Z,31.42
2023-04-20T12:54:10.233Z,30.73
2023-04-20T12:56:38.460Z,30.45
2023-04-20T12:59:06.737Z,30.56
2023-04-20T13:01:34.894Z,31.18
2023-04-20T13:04:03.741Z,32.19
2023-04-20T13:06:32.806Z,32.66
2023-04-20T13:09:02.470Z,32.47
2023-04-20T13:11:30.661Z,32.61
2023-04-20T13:13:58.677Z,33.05
2023-04-20T13:16:27.073Z,33.33
2023-04-20T13:18:55.488Z,33.00
2023-04-20T13:21:23.693Z,32.94
2023-04-20T13:23:53.516Z,33.13
2023-04-20T13:26:23.296Z,33.24
2023-04-20T13:28:51.388Z,33.78
2023-04-20T13:31:19.582Z,34.32
2023-04-20T13:33:47.717Z,34.57
2023-04-20T13:36:16.251Z,34.44
2023-04-20T13:38:44.453Z,34.74
2023-04-20T13:41:12.332Z,35.09
2023-04-20T13:43:40.366Z,35.54
2023-04-20T13:46:08.666Z,35.84
2023-04-20T13:48:37.018Z,36.08
2023-04-20T13:51:06.287Z,36.18
2023-04-20T13:53:34.815Z,36.44
2023-04-20T13:56:04.042Z,36.86
2023-04-20T13:58:32.399Z,37.04
2023-04-20T14:01:07.610Z,36.95
2023-04-20T14:03:36.510Z,37.34
2023-04-20T14:06:05.000Z,37.84
2023-04-20T14:08:33.062Z,38.12
2023-04-20T14:11:01.539Z,38.36
2023-04-20T14:13:29.584Z,38.48
2023-04-20T14:15:57.552Z,38.63
2023-04-20T14:18:25.896Z,38.60
2023-04-20T14:20:54.703Z,38.82
2023-04-20T14:23:22.744Z,38.80
2023-04-20T14:25:50.783Z,38.81
2023-04-20T14:28:19.201Z,38.90
2023-04-20T14:30:47.523Z,38.58
2023-04-20T14:33:16.006Z,38.24
2023-04-20T14:35:44.117Z,38.22
2023-04-20T14:38:12.399Z,38.32
2023-04-20T14:40:40.612Z,38.49
2023-04-20T14:43:08.635Z,38.56
2023-04-20T14:45:36.705Z,38.59
2023-04-20T14:48:05.994Z,38.52
2023-04-20T14:50:33.889Z,38.45
2023-04-20T14:53:01.992Z,38.21
2023-04-20T14:55:29.934Z,38.37
2023-04-20T14:57:58.541Z,38.19
2023-04-20T15:00:30.112Z,38.50
2023-04-20T15:02:59.890Z,38.47
2023-04-20T15:05:28.564Z,38.55
2023-04-20T15:07:57.709Z,38.77
2023-04-20T15:10:25.955Z,38.98
2023-04-20T15:12:53.998Z,39.08
2023-04-20T15:15:22.436Z,39.34
2023-04-20T15:17:50.461Z,39.08
2023-04-20T15:20:18.954Z,38.81
2023-04-20T15:22:47.249Z,38.65
2023-04-20T15:25:15.253Z,38.38
2023-04-20T15:27:43.365Z,38.53
2023-04-20T15:30:12.089Z,38.65
2023-04-20T15:32:41.691Z,38.72
2023-04-20T15:35:10.201Z,38.97
2023-04-20T15:37:38.509Z,39.22
2023-04-20T15:40:07.731Z,39.53
2023-04-20T15:42:36.253Z,39.88
2023-04-20T15:45:05.620Z,39.88
2023-04-20T15:47:33.617Z,39.95
2023-04-20T15:50:01.766Z,40.11
2023-04-20T15:52:31.888Z,40.30
2023-04-20T15:54:59.801Z,40.66
2023-04-20T15:57:29.577Z,40.52
2023-04-20T15:59:57.922Z,40.32
2023-04-20T16:02:25.983Z,40.17
2023-04-20T16:04:54.372Z,40.29
2023-04-20T16:07:22.527Z,40.44
2023-04-20T16:09:50.745Z,40.44
2023-04-20T16:12:18.894Z,40.40
2023-04-20T16:14:46.828Z,40.75
2023-04-20T16:17:15.594Z,40.86
2023-04-20T16:19:43.579Z,40.93
2023-04-20T16:22:12.422Z,41.29
2023-04-20T16:24:40.548Z,41.58
2023-04-20T16:27:08.509Z,41.83
2023-04-20T16:29:36.954Z,42.17
2023-04-20T16:32:04.910Z,42.37
2023-04-20T16:34:33.272Z,42.48
2023-04-20T16:37:01.997Z,42.66
2023-04-20T16:39:30.308Z,42.80
2023-04-20T16:41:58.723Z,42.94
2023-04-20T16:44:26.567Z,43.16
2023-04-20T16:46:54.585Z,43.51
2023-04-20T16:49:22.797Z,43.75
2023-04-20T16:51:51.035Z,44.00
2023-04-20T16:54:19.094Z,43.92
2023-04-20T16:56:47.168Z,43.88
2023-04-20T16:59:15.365Z,44.01
2023-04-20T17:01:43.492Z,44.09
2023-04-20T17:04:11.872Z,44.17
2023-04-20T17:06:40.171Z,44.25
2023-04-20T17:09:08.217Z,44.32
2023-04-20T17:11:36.099Z,44.40
2023-04-20T17:14:04.140Z,44.22
2023-04-20T17:16:32.163Z,44.23
2023-04-20T17:19:00.683Z,44.13
2023-04-20T17:21:29.092Z,44.32
2023-04-20T17:23:57.086Z,44.26
2023-04-20T17:26:25.236Z,44.26
2023-04-20T17:28:53.931Z,44.24
2023-04-20T17:31:22.240Z,44.32
2023-04-20T17:33:50.605Z,44.42
2023-04-20T17:36:18.700Z,44.50
2023-04-20T17:38:46.767Z,45.92
2023-04-20T17:41:15.114Z,45.35
2023-04-20T17:43:43.002Z,44.83
2023-04-20T17:46:11.491Z,44.68
2023-04-20T17:48:39.390Z,44.54
2023-04-20T17:51:07.279Z,44.67
2023-04-20T17:53:35.355Z,44.59
2023-04-20T17:56:04.685Z,44.60
2023-04-20T17:58:32.736Z,44.69
2023-04-20T18:01:01.532Z,44.83
2023-04-20T18:03:29.825Z,44.94
2023-04-20T18:05:57.990Z,45.07
2023-04-20T18:08:25.975Z,45.24
2023-04-20T18:10:53.907Z,45.34
2023-04-20T18:13:22.194Z,45.47
2023-04-20T18:15:50.229Z,45.55
2023-04-20T18:18:21.404Z,45.79
2023-04-20T18:20:49.328Z,45.90
2023-04-20T18:23:17.444Z,46.05
2023-04-20T18:25:45.568Z,46.01
2023-04-20T18:28:13.741Z,46.13
2023-04-20T18:30:42.393Z,46.23
2023-04-20T18:33:10.818Z,46.35
2023-04-20T18:35:38.903Z,46.26
2023-04-20T18:38:08.047Z,46.33
2023-04-20T18:40:36.114Z,46.52
2023-04-20T18:43:04.209Z,46.51
2023-04-20T18:45:32.767Z,46.75
2023-04-20T18:48:00.839Z,46.88
2023-04-20T18:50:29.223Z,46.96
2023-04-20T18:52:57.697Z,47.09
2023-04-20T18:55:25.811Z,47.31
2023-04-20T18:57:53.692Z,47.35
2023-04-20T19:00:21.990Z,47.40
2023-04-20T19:02:49.999Z,47.56
2023-04-20T19:05:18.169Z,47.46
2023-04-20T19:07:47.596Z,47.64
2023-04-20T19:10:15.719Z,47.70
2023-04-20T19:12:43.718Z,47.66
2023-04-20T19:15:11.740Z,47.57
2023-04-20T19:17:40.194Z,47.52
2023-04-20T19:20:08.997Z,47.73
2023-04-20T19:22:37.577Z,47.83
2023-04-20T19:25:06.367Z,47.82
2023-04-20T19:27:36.578Z,47.91
2023-04-20T19:30:05.983Z,47.86
2023-04-20T19:32:34.438Z,47.92
2023-04-20T19:35:02.859Z,47.92
2023-04-20T19:37:31.171Z,47.92
2023-04-20T19:40:02.449Z,47.84
2023-04-20T19:42:30.425Z,47.82
2023-04-20T19:44:58.666Z,47.77
2023-04-20T19:47:27.440Z,47.68
2023-04-20T19:49:55.419Z,47.74
2023-04-20T19:52:23.750Z,47.80
2023-04-20T19:54:51.667Z,47.71
2023-04-20T19:57:19.961Z,47.64
2023-04-20T19:59:47.917Z,47.69
2023-04-20T20:02:15.897Z,47.70
2023-04-20T20:04:45.098Z,47.64
2023-04-20T20:07:13.512Z,47.64
2023-04-20T20:09:41.455Z,47.78
2023-04-20T20:12:10.870Z,47.77
2023-04-20T20:14:39.051Z,47.79
2023-04-20T20:17:07.034Z,47.84
2023-04-20T20:19:35.060Z,47.89
2023-04-20T20:22:03.392Z,47.98
2023-04-20T20:24:31.676Z,47.96
2023-04-20T20:26:59.783Z,48.10
2023-04-20T20:29:27.930Z,47.97
2023-04-20T20:31:56.036Z,47.96
2023-04-20T20:34:23.988Z,48.11
2023-04-20T20:36:53.393Z,48.24
2023-04-20T20:39:21.829Z,48.14
2023-04-20T20:41:51.421Z,48.26
2023-04-20T20:44:20.958Z,48.34
2023-04-20T20:46:49.015Z,48.41
2023-04-20T20:49:17.260Z,48.47
2023-04-20T20:51:45.683Z,48.51
2023-04-20T20:54:13.991Z,48.49
2023-04-20T20:56:43.704Z,48.65
2023-04-20T20:59:11.996Z,48.67
2023-04-20T21:01:40.238Z,48.54
2023-04-20T21:04:08.447Z,48.60
2023-04-20T21:06:36.611Z,48.68
2023-04-20T21:09:04.926Z,48.69
2023-04-20T21:11:32.922Z,48.86
2023-04-20T21:14:02.813Z,48.97
2023-04-20T21:16:30.684Z,49.14
2023-04-20T21:18:58.587Z,49.29
2023-04-20T21:21:27.516Z,49.37
2023-04-20T21:23:55.562Z,49.48
2023-04-20T21:26:24.019Z,49.64
2023-04-20T21:28:51.906Z,49.77
2023-04-20T21:31:19.921Z,49.97
2023-04-20T21:33:47.843Z,50.09
2023-04-20T21:36:16.004Z,50.35
2023-04-20T21:38:44.373Z,50.50
2023-04-20T21:41:12.312Z,50.70
2023-04-20T21:43:42.314Z,50.97
2023-04-20T21:46:15.775Z,51.12
2023-04-20T21:48:43.802Z,51.16
2023-04-20T21:51:16.369Z,51.28
2023-04-20T21:53:44.743Z,51.42
2023-04-20T21:56:14.588Z,51.35
2023-04-20T21:58:43.078Z,51.51
2023-04-20T22:01:11.560Z,51.49
2023-04-20T22:03:39.605Z,51.53
2023-04-20T22:06:07.830Z,51.54
2023-04-20T22:08:39.666Z,51.51
2023-04-20T22:11:08.571Z,51.43
2023-04-20T22:13:37.122Z,51.35
2023-04-20T22:16:06.048Z,51.21
2023-04-20T22:18:34.233Z,51.14
2023-04-20T22:21:02.094Z,51.10
2023-04-20T22:23:30.310Z,51.07
2023-04-20T22:25:58.337Z,51.13
2023-04-20T22:28:26.497Z,51.19
2023-04-20T22:30:54.768Z,51.35
2023-04-20T22:33:22.856Z,51.31
2023-04-20T22:35:51.382Z,51.26
2023-04-20T22:38:19.730Z,51.33
2023-04-20T22:40:47.760Z,51.40
2023-04-20T22:43:16.224Z,51.36
2023-04-20T22:45:44.143Z,51.53
2023-04-20T22:48:11.984Z,51.64
2023-04-20T22:50:39.893Z,51.68
2023-04-20T22:53:07.950Z,51.62
2023-04-20T22:55:35.867Z,51.80
2023-04-20T22:58:03.890Z,52.00
2023-04-20T23:00:31.877Z,52.23
2023-04-20T23:03:00.383Z,52.45
2023-04-20T23:05:29.045Z,52.73
2023-04-20T23:07:56.868Z,53.01
2023-04-20T23:10:28.867Z,53.18
2023-04-20T23:12:56.884Z,53.45
2023-04-20T23:15:24.910Z,53.49
2023-04-20T23:17:52.994Z,53.85
2023-04-20T23:20:20.896Z,54.15
2023-04-20T23:22:48.833Z,54.19
2023-04-20T23:25:16.979Z,54.30
2023-04-20T23:27:44.886Z,54.41
2023-04-20T23:30:13.625Z,54.57
2023-04-20T23:32:44.323Z,54.59
2023-04-20T23:35:12.727Z,54.63
2023-04-20T23:37:41.430Z,54.50
2023-04-20T23:40:10.514Z,54.64
2023-04-20T23:42:38.625Z,54.67
2023-04-20T23:45:07.350Z,54.86
2023-04-20T23:47:35.194Z,55.13
2023-04-20T23:50:03.540Z,55.60
2023-04-20T23:52:31.456Z,55.80
2023-04-20T23:54:59.449Z,55.93
2023-04-20T23:57:27.603Z,56.17
2023-04-20T23:59:55.644Z,56.37
